Chokoloskee, Florida
Current Conditions -  °F | °C
As of 1:55 PM on Sunday 23 Nov 2014 (Local Time) from KMKY Reporting Station
Clear Clear  
Wind Chill: 82°   Ceiling: Unl
Heat Index: 88°   Visibility: 10mi
Dew Point: 73°   Wind: 12mph
Humidity: 74%   Direction: 160°SSE
Pressure: 29.92"   Gusts: 22mph
Location:  25.81°N, 81.36°W
Report Text: KMKY 231855Z AUTO 16010G19KT 10SM CLR 28/23 A2992 RMK AO1
Loading
Personal Weather Stations






























Interactive Weather Map New forecast layout! Learn more

10-Day Weather Forecast

Advertisements
Track Severe Weather on mobile